createdAt,value
2023-01-04T00:01:13.223Z,101890.03
2023-01-04T00:03:16.583Z,101900.91
2023-01-04T00:05:20.823Z,101912.03
2023-01-04T00:07:23.763Z,101908.41
2023-01-04T00:09:26.569Z,101910.00
2023-01-04T00:11:29.381Z,101905.66
2023-01-04T00:13:32.618Z,101900.16
2023-01-04T00:15:38.461Z,101905.22
2023-01-04T00:17:41.326Z,101902.66
2023-01-04T00:19:44.100Z,101906.84
2023-01-04T00:21:48.360Z,101900.94
2023-01-04T00:23:54.002Z,101898.47
2023-01-04T00:25:56.824Z,101906.94
2023-01-04T00:27:59.635Z,101906.94
2023-01-04T00:30:02.657Z,101900.94
2023-01-04T00:32:05.721Z,101895.78
2023-01-04T00:34:08.576Z,101896.78
2023-01-04T00:36:13.785Z,101890.63
2023-01-04T00:38:17.859Z,101884.41
2023-01-04T00:40:20.645Z,101875.78
2023-01-04T00:42:23.436Z,101872.03
2023-01-04T00:44:26.294Z,101875.41
2023-01-04T00:46:29.317Z,101875.19
2023-01-04T00:48:34.419Z,101866.56
2023-01-04T00:50:40.636Z,101865.56
2023-01-04T00:52:43.402Z,101859.53
2023-01-04T00:54:47.542Z,101867.28
2023-01-04T00:56:50.595Z,101856.78
2023-01-04T00:58:55.739Z,101859.53
2023-01-04T01:01:05.188Z,101853.00
2023-01-04T01:03:08.921Z,101866.00
2023-01-04T01:05:12.027Z,101864.38
2023-01-04T01:07:14.854Z,101859.22
2023-01-04T01:09:18.483Z,101858.09
2023-01-04T01:11:22.915Z,101856.38
2023-01-04T01:13:25.730Z,101856.56
2023-01-04T01:15:28.660Z,101851.22
2023-01-04T01:17:31.563Z,101851.31
2023-01-04T01:19:34.658Z,101850.50
2023-01-04T01:21:37.815Z,101848.00
2023-01-04T01:23:41.280Z,101849.13
2023-01-04T01:25:44.090Z,101838.41
2023-01-04T01:27:48.300Z,101847.75
2023-01-04T01:29:51.090Z,101841.06
2023-01-04T01:31:54.393Z,101849.88
2023-01-04T01:33:58.404Z,101836.78
2023-01-04T01:36:01.909Z,101843.00
2023-01-04T01:38:04.689Z,101846.53
2023-01-04T01:40:08.648Z,101841.47
2023-01-04T01:42:19.860Z,101841.25
2023-01-04T01:44:57.966Z,101840.81
2023-01-04T01:47:01.393Z,101836.13
2023-01-04T01:49:11.238Z,101838.72
2023-01-04T01:51:17.805Z,101830.97
2023-01-04T01:53:21.667Z,101830.09
2023-01-04T01:55:25.200Z,101816.47
2023-01-04T01:57:30.491Z,101820.41
2023-01-04T01:59:35.318Z,101819.75
2023-01-04T02:01:39.643Z,101809.19
2023-01-04T02:03:44.292Z,101806.69
2023-01-04T02:05:50.980Z,101797.41
2023-01-04T02:07:54.555Z,101796.84
2023-01-04T02:09:58.582Z,101796.19
2023-01-04T02:12:01.985Z,101782.72
2023-01-04T02:14:24.046Z,101786.03
2023-01-04T02:16:38.208Z,101785.47
2023-01-04T02:18:49.393Z,101779.34
2023-01-04T02:20:56.333Z,101782.88
2023-01-04T02:23:33.805Z,101782.00
2023-01-04T02:26:03.723Z,101780.38
2023-01-04T02:28:17.579Z,101768.41
2023-01-04T02:31:09.448Z,101765.94
2023-01-04T02:33:32.558Z,101766.41
2023-01-04T02:35:44.360Z,101770.19
2023-01-04T02:37:53.167Z,101765.09
2023-01-04T02:40:04.290Z,101766.81
2023-01-04T02:42:14.047Z,101770.28
2023-01-04T02:44:37.000Z,101770.34
2023-01-04T02:46:45.562Z,101786.69
2023-01-04T02:49:07.486Z,101791.66
2023-01-04T02:51:29.183Z,101781.25
2023-01-04T02:53:36.748Z,101775.44
2023-01-04T02:55:52.667Z,101776.19
2023-01-04T02:58:04.607Z,101772.22
2023-01-04T03:00:28.919Z,101769.00
2023-01-04T03:03:04.070Z,101770.13
2023-01-04T03:05:33.959Z,101760.50
2023-01-04T03:07:42.050Z,101753.66
2023-01-04T03:09:50.223Z,101746.00
2023-01-04T03:12:16.034Z,101739.41
2023-01-04T03:14:31.552Z,101742.25
2023-01-04T03:16:39.178Z,101744.09
2023-01-04T03:18:45.568Z,101736.41
2023-01-04T03:20:51.595Z,101739.84
2023-01-04T03:23:16.293Z,101741.00
2023-01-04T03:25:40.948Z,101730.53
2023-01-04T03:28:05.117Z,101737.97
2023-01-04T03:30:29.310Z,101738.78
2023-01-04T03:32:58.623Z,101731.81
2023-01-04T03:35:19.441Z,101733.53
2023-01-04T03:37:27.993Z,101730.16
2023-01-04T03:40:00.354Z,101725.78
2023-01-04T03:42:29.737Z,101727.56
2023-01-04T03:44:56.141Z,101720.91
2023-01-04T03:47:25.375Z,101715.16
2023-01-04T03:49:34.619Z,101708.00
2023-01-04T03:51:39.287Z,101708.16
2023-01-04T03:53:51.641Z,101715.75
2023-01-04T03:55:56.629Z,101702.44
2023-01-04T03:58:00.454Z,101701.88
2023-01-04T04:00:08.848Z,101700.94
2023-01-04T04:02:14.030Z,101693.47
2023-01-04T04:04:34.299Z,101698.00
2023-01-04T04:06:54.678Z,101686.03
2023-01-04T04:08:58.887Z,101695.44
2023-01-04T04:11:24.383Z,101683.72
2023-01-04T04:13:27.205Z,101688.00
2023-01-04T04:15:29.962Z,101683.88
2023-01-04T04:17:32.694Z,101685.41
2023-01-04T04:19:35.471Z,101691.53
2023-01-04T04:21:38.453Z,101688.16
2023-01-04T04:23:41.491Z,101693.97
2023-01-04T04:25:46.481Z,101698.34
2023-01-04T04:27:49.362Z,101700.09
2023-01-04T04:29:52.202Z,101686.81
2023-01-04T04:31:55.055Z,101690.41
2023-01-04T04:33:57.950Z,101681.72
2023-01-04T04:36:00.922Z,101680.41
2023-01-04T04:38:03.948Z,101682.47
2023-01-04T04:40:08.248Z,101688.31
2023-01-04T04:42:11.474Z,101680.91
2023-01-04T04:44:17.680Z,101684.44
2023-01-04T04:46:20.606Z,101678.41
2023-01-04T04:48:23.532Z,101681.06
2023-01-04T04:50:26.790Z,101681.19
2023-01-04T04:52:29.713Z,101672.59
2023-01-04T04:54:32.461Z,101670.66
2023-01-04T04:56:36.868Z,101672.22
2023-01-04T04:58:41.415Z,101674.34
2023-01-04T05:00:44.195Z,101663.03
2023-01-04T05:02:47.152Z,101665.47
2023-01-04T05:04:49.993Z,101673.34
2023-01-04T05:06:53.101Z,101665.38
2023-01-04T05:08:55.945Z,101668.84
2023-01-04T05:10:58.853Z,101673.94
2023-01-04T05:13:00.660Z,101672.00
2023-01-04T05:15:05.237Z,101676.84
2023-01-04T05:17:08.142Z,101675.00
2023-01-04T05:19:10.919Z,101667.97
2023-01-04T05:21:19.858Z,101664.00
2023-01-04T05:23:23.269Z,101665.47
2023-01-04T05:25:26.270Z,101667.09
2023-01-04T05:27:29.107Z,101658.59
2023-01-04T05:29:57.799Z,101650.75
2023-01-04T05:32:02.025Z,101660.94
2023-01-04T05:34:04.806Z,101654.28
2023-01-04T05:36:08.074Z,101662.19
2023-01-04T05:38:10.861Z,101650.91
2023-01-04T05:40:13.650Z,101642.16
2023-01-04T05:42:28.847Z,101650.19
2023-01-04T05:44:31.693Z,101636.91
2023-01-04T05:46:34.645Z,101640.16
2023-01-04T05:48:38.808Z,101632.25
2023-01-04T05:50:41.712Z,101635.19
2023-01-04T05:52:46.455Z,101627.94
2023-01-04T05:54:49.390Z,101630.91
2023-01-04T05:56:52.210Z,101629.75
2023-01-04T05:58:55.073Z,101625.59
2023-01-04T06:00:57.916Z,101637.91
2023-01-04T06:03:00.787Z,101629.00
2023-01-04T06:05:06.243Z,101630.91
2023-01-04T06:07:08.965Z,101629.09
2023-01-04T06:09:11.739Z,101616.53
2023-01-04T06:11:14.546Z,101609.59
2023-01-04T06:13:17.334Z,101599.63
2023-01-04T06:15:20.193Z,101601.47
2023-01-04T06:17:22.977Z,101587.00
2023-01-04T06:19:26.297Z,101588.03
2023-01-04T06:21:30.568Z,101592.75
2023-01-04T06:23:33.417Z,101589.53
2023-01-04T06:25:36.328Z,101600.00
2023-01-04T06:27:39.198Z,101593.19
2023-01-04T06:29:41.976Z,101592.97
2023-01-04T06:31:44.817Z,101596.16
2023-01-04T06:33:50.548Z,101598.16
2023-01-04T06:35:56.310Z,101595.44
2023-01-04T06:38:00.508Z,101601.41
2023-01-04T06:40:03.379Z,101612.94
2023-01-04T06:42:07.353Z,101603.47
2023-01-04T06:44:10.381Z,101602.16
2023-01-04T06:46:13.216Z,101601.84
2023-01-04T06:48:18.104Z,101592.59
2023-01-04T06:50:21.427Z,101608.13
2023-01-04T06:52:24.317Z,101608.25
2023-01-04T06:54:29.631Z,101610.47
2023-01-04T06:56:33.558Z,101599.50
2023-01-04T06:58:36.491Z,101605.81
2023-01-04T07:00:39.280Z,101604.50
2023-01-04T07:03:12.459Z,101589.53
2023-01-04T07:05:05.488Z,101591.84
2023-01-04T07:07:08.361Z,101591.03
2023-01-04T07:09:11.233Z,101578.72
2023-01-04T07:11:15.345Z,101586.53
2023-01-04T07:13:18.169Z,101580.16
2023-01-04T07:15:39.690Z,101575.69
2023-01-04T07:17:43.353Z,101568.00
2023-01-04T07:19:46.194Z,101565.47
2023-01-04T07:21:49.205Z,101572.63
2023-01-04T07:23:51.993Z,101565.19
2023-01-04T07:25:54.869Z,101568.13
2023-01-04T07:27:59.043Z,101566.28
2023-01-04T07:30:01.972Z,101570.50
2023-01-04T07:32:10.202Z,101570.84
2023-01-04T07:34:18.185Z,101561.34
2023-01-04T07:36:20.941Z,101550.44
2023-01-04T07:38:24.079Z,101537.94
2023-01-04T07:40:27.941Z,101521.31
2023-01-04T07:42:31.256Z,101503.41
2023-01-04T07:44:35.426Z,101523.00
2023-01-04T07:46:39.072Z,101534.50
2023-01-04T07:48:41.939Z,101527.34
2023-01-04T07:50:46.309Z,101519.31
2023-01-04T07:52:49.153Z,101525.47
2023-01-04T07:54:51.945Z,101539.53
2023-01-04T07:56:54.885Z,101529.13
2023-01-04T07:58:59.329Z,101521.50
2023-01-04T08:01:09.157Z,101521.59
2023-01-04T08:03:12.053Z,101507.09
2023-01-04T08:05:14.992Z,101512.66
2023-01-04T08:07:17.777Z,101506.56
2023-01-04T08:09:20.761Z,101513.66
2023-01-04T08:11:24.502Z,101508.81
2023-01-04T08:13:27.259Z,101519.69
2023-01-04T08:15:30.294Z,101518.31
2023-01-04T08:17:34.483Z,101521.88
2023-01-04T08:19:37.551Z,101514.78
2023-01-04T08:21:41.000Z,101527.56
2023-01-04T08:23:43.946Z,101528.19
2023-01-04T08:25:46.935Z,101542.56
2023-01-04T08:27:49.879Z,101549.16
2023-01-04T08:29:52.759Z,101554.53
2023-01-04T08:31:55.698Z,101559.50
2023-01-04T08:34:02.766Z,101563.25
2023-01-04T08:36:10.414Z,101571.34
2023-01-04T08:38:56.106Z,101560.00
2023-01-04T08:40:58.855Z,101558.34
2023-01-04T08:42:59.839Z,101555.56
2023-01-04T08:45:02.716Z,101556.03
2023-01-04T08:47:05.733Z,101548.25
2023-01-04T08:49:10.249Z,101558.88
2023-01-04T08:51:15.703Z,101554.66
2023-01-04T08:53:18.703Z,101551.81
2023-01-04T08:55:23.556Z,101539.56
2023-01-04T08:57:26.786Z,101535.38
2023-01-04T08:59:33.273Z,101528.31
2023-01-04T09:01:36.799Z,101522.03
2023-01-04T09:03:39.972Z,101520.97
2023-01-04T09:05:48.704Z,101520.53
2023-01-04T09:07:52.058Z,101508.78
2023-01-04T09:09:54.892Z,101514.41
2023-01-04T09:11:59.563Z,101507.94
2023-01-04T09:14:07.906Z,101506.38
2023-01-04T09:16:13.113Z,101499.53
2023-01-04T09:18:32.900Z,101502.56
2023-01-04T09:20:36.093Z,101499.41
2023-01-04T09:22:40.180Z,101501.88
2023-01-04T09:24:42.939Z,101501.13
2023-01-04T09:26:47.336Z,101513.97
2023-01-04T09:28:50.995Z,101522.91
2023-01-04T09:30:53.852Z,101512.91
2023-01-04T09:32:56.696Z,101520.56
2023-01-04T09:34:59.524Z,101511.16
2023-01-04T09:37:02.343Z,101513.06
2023-01-04T09:39:06.652Z,101505.66
2023-01-04T09:41:19.801Z,101497.19
2023-01-04T09:43:25.371Z,101504.34
2023-01-04T09:45:29.532Z,101498.97
2023-01-04T09:47:39.774Z,101496.56
2023-01-04T09:49:46.649Z,101472.88
2023-01-04T09:51:58.134Z,101481.91
2023-01-04T09:54:06.868Z,101480.78
2023-01-04T09:56:19.420Z,101474.66
2023-01-04T09:58:27.941Z,101499.34
2023-01-04T10:00:41.807Z,101494.28
2023-01-04T10:02:50.871Z,101481.09
2023-01-04T10:04:53.783Z,101488.06
2023-01-04T10:07:02.742Z,101480.78
2023-01-04T10:09:13.045Z,101483.44
2023-01-04T10:11:36.949Z,101487.97
2023-01-04T10:14:02.392Z,101486.47
2023-01-04T10:16:17.630Z,101492.22
2023-01-04T10:21:34.177Z,101475.28
2023-01-04T10:23:53.368Z,101476.75
2023-01-04T10:25:58.368Z,101467.53
2023-01-04T10:28:15.771Z,101464.59
2023-01-04T10:30:31.187Z,101468.53
2023-01-04T10:32:36.708Z,101460.69
2023-01-04T10:34:42.914Z,101459.03
2023-01-04T10:36:47.538Z,101449.16
2023-01-04T10:38:56.471Z,101452.91
2023-01-04T10:41:03.743Z,101446.84
2023-01-04T10:43:17.681Z,101446.31
2023-01-04T10:45:27.304Z,101439.69
2023-01-04T10:47:36.971Z,101433.19
2023-01-04T10:49:44.649Z,101442.84
2023-01-04T10:51:52.038Z,101443.59
2023-01-04T10:53:58.744Z,101443.56
2023-01-04T10:56:25.349Z,101441.19
2023-01-04T10:58:39.222Z,101426.44
2023-01-04T11:00:45.931Z,101425.75
2023-01-04T11:02:53.174Z,101424.94
2023-01-04T11:05:01.804Z,101427.97
2023-01-04T11:07:11.362Z,101430.13
2023-01-04T11:09:25.052Z,101429.28
2023-01-04T11:11:33.945Z,101425.25
2023-01-04T11:13:38.677Z,101416.28
2023-01-04T11:15:42.688Z,101423.53
2023-01-04T11:17:46.396Z,101418.09
2023-01-04T11:19:50.093Z,101426.34
2023-01-04T11:21:59.054Z,101427.97
2023-01-04T11:24:30.806Z,101427.00
2023-01-04T11:26:35.965Z,101418.44
2023-01-04T11:28:45.397Z,101417.00
2023-01-04T11:30:55.307Z,101416.41
2023-01-04T11:33:03.983Z,101406.03
2023-01-04T11:35:07.343Z,101399.00
2023-01-04T11:37:25.282Z,101402.84
2023-01-04T11:39:28.204Z,101389.50
2023-01-04T11:41:31.112Z,101376.91
2023-01-04T11:43:35.876Z,101383.66
2023-01-04T11:45:40.222Z,101368.41
2023-01-04T11:47:49.592Z,101365.19
2023-01-04T11:49:53.089Z,101364.50
2023-01-04T11:51:55.902Z,101359.31
2023-01-04T11:54:00.469Z,101372.44
2023-01-04T11:56:16.167Z,101372.53
2023-01-04T11:58:20.990Z,101369.00
2023-01-04T12:00:24.044Z,101368.06
2023-01-04T12:02:59.374Z,101365.41
2023-01-04T12:04:53.389Z,101357.00
2023-01-04T12:06:59.398Z,101347.56
2023-01-04T12:09:02.373Z,101348.50
2023-01-04T12:11:07.047Z,101338.28
2023-01-04T12:13:11.257Z,101336.47
2023-01-04T12:15:21.840Z,101335.75
2023-01-04T12:17:30.142Z,101333.56
2023-01-04T12:19:33.432Z,101330.03
2023-01-04T12:21:36.727Z,101334.19
2023-01-04T12:23:39.618Z,101331.75
2023-01-04T12:25:46.377Z,101324.69
2023-01-04T12:27:49.618Z,101326.69
2023-01-04T12:29:59.183Z,101317.03
2023-01-04T12:32:48.536Z,101316.38
2023-01-04T12:34:54.416Z,101308.00
2023-01-04T12:37:04.759Z,101308.78
2023-01-04T12:39:41.951Z,101308.72
2023-01-04T12:42:13.197Z,101312.56
2023-01-04T12:44:51.866Z,101297.72
2023-01-04T12:47:12.098Z,101291.56
2023-01-04T12:49:51.602Z,101287.19
2023-01-04T12:52:38.270Z,101289.19
2023-01-04T12:54:54.435Z,101293.84
2023-01-04T12:57:24.708Z,101296.53
2023-01-04T12:59:33.580Z,101290.22
2023-01-04T13:01:36.928Z,101285.88
2023-01-04T13:03:48.892Z,101284.97
2023-01-04T13:05:57.507Z,101286.72
2023-01-04T13:08:03.589Z,101286.47
2023-01-04T13:10:21.629Z,101287.63
2023-01-04T13:12:47.353Z,101285.09
2023-01-04T13:14:52.097Z,101275.75
2023-01-04T13:17:12.286Z,101279.16
2023-01-04T13:19:22.017Z,101274.84
2023-01-04T13:21:30.227Z,101269.00
2023-01-04T13:23:33.161Z,101279.16
2023-01-04T13:25:37.351Z,101261.31
2023-01-04T13:27:55.018Z,101255.88
2023-01-04T13:29:57.923Z,101246.38
2023-01-04T13:32:02.850Z,101249.13
2023-01-04T13:34:05.487Z,101247.78
2023-01-04T13:36:12.430Z,101245.75
2023-01-04T13:38:17.266Z,101241.25
2023-01-04T13:40:23.155Z,101234.22
2023-01-04T13:42:28.225Z,101232.50
2023-01-04T13:45:18.485Z,101236.94
2023-01-04T13:47:15.007Z,101227.25
2023-01-04T13:49:18.400Z,101231.34
2023-01-04T13:51:29.094Z,101245.97
2023-01-04T13:53:35.021Z,101247.47
2023-01-04T13:55:39.254Z,101237.22
2023-01-04T13:57:53.985Z,101247.75
2023-01-04T13:59:56.779Z,101232.78
2023-01-04T14:01:59.871Z,101221.44
2023-01-04T14:04:05.000Z,101232.09
2023-01-04T14:06:30.088Z,101233.63
2023-01-04T14:08:36.934Z,101220.28
2023-01-04T14:10:44.579Z,101221.97
2023-01-04T14:12:48.773Z,101218.41
2023-01-04T14:14:56.230Z,101215.84
2023-01-04T14:17:20.911Z,101215.81
2023-01-04T14:19:42.752Z,101203.31
2023-01-04T14:21:45.599Z,101206.81
2023-01-04T14:23:48.457Z,101209.41
2023-01-04T14:25:56.461Z,101201.75
2023-01-04T14:28:37.522Z,101200.22
2023-01-04T14:30:47.080Z,101202.00
2023-01-04T14:32:55.230Z,101192.66
2023-01-04T14:35:11.527Z,101206.53
2023-01-04T14:37:14.927Z,101202.06
2023-01-04T14:39:36.090Z,101197.91
2023-01-04T14:41:41.518Z,101202.97
2023-01-04T14:43:46.776Z,101192.56
2023-01-04T14:45:50.948Z,101197.09
2023-01-04T14:47:53.780Z,101194.59
2023-01-04T14:49:56.551Z,101185.88
2023-01-04T14:52:00.980Z,101181.50
2023-01-04T14:54:03.885Z,101187.59
2023-01-04T14:56:07.399Z,101177.41
2023-01-04T14:58:10.138Z,101171.44
2023-01-04T15:00:19.411Z,101174.97
2023-01-04T15:02:26.889Z,101174.84
2023-01-04T15:04:30.286Z,101176.47
2023-01-04T15:06:33.639Z,101180.19
2023-01-04T15:08:36.425Z,101176.63
2023-01-04T15:10:39.589Z,101171.38
2023-01-04T15:12:42.374Z,101171.44
2023-01-04T15:14:45.263Z,101173.03
2023-01-04T15:16:48.644Z,101167.91
2023-01-04T15:18:52.928Z,101164.72
2023-01-04T15:20:55.781Z,101142.44
2023-01-04T15:22:58.639Z,101146.63
2023-01-04T15:25:01.531Z,101150.41
2023-01-04T15:27:04.384Z,101161.38
2023-01-04T15:29:08.348Z,101151.69
2023-01-04T15:31:13.055Z,101155.09
2023-01-04T15:33:16.000Z,101144.84
2023-01-04T15:35:20.154Z,101144.09
2023-01-04T15:37:24.100Z,101147.28
2023-01-04T15:39:27.060Z,101141.84
2023-01-04T15:41:47.628Z,101141.03
2023-01-04T15:43:50.404Z,101145.59
2023-01-04T15:45:53.228Z,101139.59
2023-01-04T15:47:57.615Z,101140.41
2023-01-04T15:50:00.473Z,101133.34
2023-01-04T15:52:04.869Z,101138.56
2023-01-04T15:54:08.026Z,101136.59
2023-01-04T15:56:13.154Z,101128.94
2023-01-04T15:58:15.975Z,101132.22
2023-01-04T16:00:19.471Z,101125.47
2023-01-04T16:02:22.341Z,101117.69
2023-01-04T16:04:25.899Z,101128.00
2023-01-04T16:06:28.753Z,101132.41
2023-01-04T16:08:33.353Z,101127.19
2023-01-04T16:10:36.283Z,101130.66
2023-01-04T16:12:48.670Z,101122.72
2023-01-04T16:14:55.745Z,101142.34
2023-01-04T16:16:58.531Z,101124.47
2023-01-04T16:19:01.973Z,101136.47
2023-01-04T16:21:07.119Z,101131.53
2023-01-04T16:23:09.989Z,101125.63
2023-01-04T16:25:14.907Z,101142.75
2023-01-04T16:27:17.712Z,101127.22
2023-01-04T16:29:20.905Z,101133.50
2023-01-04T16:31:24.953Z,101129.31
2023-01-04T16:33:28.240Z,101128.28
2023-01-04T16:35:31.020Z,101110.16
2023-01-04T16:37:33.798Z,101127.44
2023-01-04T16:42:04.248Z,101121.16
2023-01-04T16:44:13.458Z,101132.50
2023-01-04T16:46:21.545Z,101119.91
2023-01-04T16:48:24.396Z,101121.22
2023-01-04T16:50:27.200Z,101119.78
2023-01-04T16:52:30.054Z,101118.66
2023-01-04T16:54:33.232Z,101132.97
2023-01-04T16:56:36.969Z,101129.34
2023-01-04T16:58:43.730Z,101141.66
2023-01-04T17:00:46.707Z,101128.63
2023-01-04T17:02:50.730Z,101141.47
2023-01-04T17:04:56.959Z,101134.38
2023-01-04T17:06:59.863Z,101133.00
2023-01-04T17:09:03.733Z,101135.59
2023-01-04T17:11:56.335Z,101137.41
2023-01-04T17:13:31.539Z,101133.28
2023-01-04T17:15:44.117Z,101143.44
2023-01-04T17:17:47.267Z,101129.69
2023-01-04T17:19:50.119Z,101124.50
2023-01-04T17:21:53.067Z,101122.56
2023-01-04T17:23:58.112Z,101124.25
2023-01-04T17:26:03.157Z,101132.13
2023-01-04T17:28:05.990Z,101113.31
2023-01-04T17:30:10.406Z,101125.28
2023-01-04T17:32:14.583Z,101125.13
2023-01-04T17:34:22.545Z,101109.31
2023-01-04T17:36:26.704Z,101124.03
2023-01-04T17:38:29.508Z,101127.53
2023-01-04T17:41:16.996Z,101131.69
2023-01-04T17:43:19.831Z,101127.34
2023-01-04T17:45:22.784Z,101140.56
2023-01-04T17:47:27.672Z,101123.22
2023-01-04T17:49:32.538Z,101115.22
2023-01-04T17:51:36.983Z,101139.25
2023-01-04T17:53:40.283Z,101127.28
2023-01-04T17:55:43.175Z,101133.47
2023-01-04T17:57:46.366Z,101122.19
2023-01-04T17:59:49.185Z,101124.06
2023-01-04T18:01:52.171Z,101124.06
2023-01-04T18:03:57.786Z,101118.72
2023-01-04T18:06:24.337Z,101118.88
2023-01-04T18:08:23.350Z,101126.59
2023-01-04T18:10:40.961Z,101116.19
2023-01-04T18:12:49.010Z,101126.63
2023-01-04T18:14:51.950Z,101117.31
2023-01-04T18:16:58.397Z,101124.78
2023-01-04T18:19:03.090Z,101120.50
2023-01-04T18:21:27.173Z,101121.44
2023-01-04T18:23:30.766Z,101120.38
2023-01-04T18:25:33.899Z,101120.50
2023-01-04T18:27:36.770Z,101120.41
2023-01-04T18:29:39.662Z,101129.97
2023-01-04T18:31:42.508Z,101127.38
2023-01-04T18:33:52.624Z,101130.75
2023-01-04T18:35:56.818Z,101129.91
2023-01-04T18:37:59.664Z,101123.16
2023-01-04T18:40:03.425Z,101112.69
2023-01-04T18:42:06.427Z,101112.91
2023-01-04T18:44:32.107Z,101121.31
2023-01-04T18:46:33.684Z,101108.41
2023-01-04T18:48:38.622Z,101124.00
2023-01-04T18:50:41.294Z,101120.03
2023-01-04T18:52:45.540Z,101122.69
2023-01-04T18:54:48.540Z,101108.47
2023-01-04T18:56:58.704Z,101115.75
2023-01-04T18:59:05.518Z,101124.53
2023-01-04T19:01:09.819Z,101128.28
2023-01-04T19:03:18.162Z,101134.19
2023-01-04T19:05:22.613Z,101118.63
2023-01-04T19:07:25.480Z,101123.72
2023-01-04T19:09:30.482Z,101118.47
2023-01-04T19:11:33.343Z,101121.97
2023-01-04T19:13:37.905Z,101116.03
2023-01-04T19:15:47.545Z,101121.97
2023-01-04T19:17:50.906Z,101116.88
2023-01-04T19:19:53.718Z,101121.31
2023-01-04T19:21:56.492Z,101106.66
2023-01-04T19:23:59.346Z,101108.25
2023-01-04T19:26:07.118Z,101101.28
2023-01-04T19:28:11.565Z,101098.72
2023-01-04T19:30:14.895Z,101106.47
2023-01-04T19:32:21.083Z,101101.72
2023-01-04T19:34:23.830Z,101099.78
2023-01-04T19:36:26.699Z,101100.69
2023-01-04T19:38:29.683Z,101097.19
2023-01-04T19:40:32.546Z,101101.72
2023-01-04T19:42:36.750Z,101102.34
2023-01-04T19:44:39.637Z,101107.50
2023-01-04T19:46:42.457Z,101105.03
2023-01-04T19:48:45.438Z,101103.06
2023-01-04T19:50:48.257Z,101104.97
2023-01-04T19:52:51.264Z,101110.22
2023-01-04T19:54:54.109Z,101113.53
2023-01-04T19:56:56.983Z,101103.25
2023-01-04T19:59:01.547Z,101098.91
2023-01-04T20:01:04.511Z,101126.66
2023-01-04T20:03:07.486Z,101125.84
2023-01-04T20:05:10.672Z,101117.31
2023-01-04T20:07:13.649Z,101129.06
2023-01-04T20:09:18.314Z,101135.78
2023-01-04T20:11:21.329Z,101116.06
2023-01-04T20:13:24.562Z,101128.25
2023-01-04T20:15:28.750Z,101125.75
2023-01-04T20:17:31.538Z,101120.69
2023-01-04T20:19:34.387Z,101128.63
2023-01-04T20:21:37.195Z,101126.75
2023-01-04T20:23:40.109Z,101127.78
2023-01-04T20:25:44.571Z,101119.06
2023-01-04T20:27:47.435Z,101129.56
2023-01-04T20:29:50.210Z,101131.22
2023-01-04T20:31:54.476Z,101127.78
2023-01-04T20:33:57.459Z,101129.47
2023-01-04T20:36:06.434Z,101124.25
2023-01-04T20:38:09.973Z,101132.06
2023-01-04T20:40:13.496Z,101132.94
2023-01-04T20:42:34.011Z,101128.81
2023-01-04T20:44:38.175Z,101124.72
2023-01-04T20:46:47.912Z,101125.47
2023-01-04T20:48:52.410Z,101117.91
2023-01-04T20:50:55.627Z,101110.97
2023-01-04T20:52:58.417Z,101109.41
2023-01-04T20:55:01.211Z,101087.59
2023-01-04T20:57:04.032Z,101090.28
2023-01-04T20:59:06.954Z,101099.00
2023-01-04T21:01:09.917Z,101097.41
2023-01-04T21:03:13.120Z,101095.84
2023-01-04T21:05:17.702Z,101097.72
2023-01-04T21:07:20.532Z,101099.56
2023-01-04T21:09:23.358Z,101100.44
2023-01-04T21:11:26.221Z,101113.56
2023-01-04T21:13:29.081Z,101105.72
2023-01-04T21:15:32.005Z,101101.53
2023-01-04T21:17:34.863Z,101111.19
2023-01-04T21:19:37.649Z,101112.06
2023-01-04T21:21:41.842Z,101101.78
2023-01-04T21:23:45.424Z,101103.53
2023-01-04T21:25:49.439Z,101102.78
2023-01-04T21:27:52.283Z,101077.78
2023-01-04T21:29:55.061Z,101084.03
2023-01-04T21:31:58.497Z,101071.06
2023-01-04T21:34:01.387Z,101066.78
2023-01-04T21:36:10.991Z,101074.75
2023-01-04T21:38:15.153Z,101073.84
2023-01-04T21:40:18.197Z,101069.38
2023-01-04T21:42:23.937Z,101070.38
2023-01-04T21:44:26.720Z,101062.63
2023-01-04T21:46:29.669Z,101069.72
2023-01-04T21:48:32.472Z,101075.69
2023-01-04T21:50:35.501Z,101078.19
2023-01-04T21:52:38.286Z,101083.38
2023-01-04T21:54:42.471Z,101079.06
2023-01-04T21:56:46.333Z,101080.13
2023-01-04T21:58:49.437Z,101077.41
2023-01-04T22:00:52.207Z,101073.16
2023-01-04T22:02:55.089Z,101074.81
2023-01-04T22:04:57.949Z,101082.44
2023-01-04T22:07:00.797Z,101062.81
2023-01-04T22:09:04.543Z,101055.00
2023-01-04T22:11:09.360Z,101053.97
2023-01-04T22:13:12.112Z,101058.19
2023-01-04T22:15:15.044Z,101058.41
2023-01-04T22:17:17.856Z,101060.22
2023-01-04T22:19:21.018Z,101053.22
2023-01-04T22:21:24.679Z,101046.28
2023-01-04T22:23:27.603Z,101047.97
2023-01-04T22:25:30.488Z,101054.88
2023-01-04T22:27:34.681Z,101048.09
2023-01-04T22:29:38.487Z,101034.16
2023-01-04T22:31:41.387Z,101032.34
2023-01-04T22:33:44.502Z,101033.09
2023-01-04T22:35:47.336Z,101034.91
2023-01-04T22:37:50.163Z,101043.34
2023-01-04T22:39:52.907Z,101034.78
2023-01-04T22:41:55.670Z,101040.72
2023-01-04T22:44:03.231Z,101033.09
2023-01-04T22:46:07.953Z,101020.09
2023-01-04T22:48:11.790Z,101012.94
2023-01-04T22:50:14.628Z,101027.59
2023-01-04T22:52:17.399Z,101035.38
2023-01-04T22:54:20.228Z,101021.34
2023-01-04T22:56:23.710Z,101033.59
2023-01-04T22:58:26.553Z,101017.09
2023-01-04T23:00:30.688Z,101019.75
2023-01-04T23:02:33.556Z,101024.19
2023-01-04T23:04:36.422Z,101024.94
2023-01-04T23:06:39.235Z,101031.16
2023-01-04T23:08:42.295Z,101037.94
2023-01-04T23:10:45.211Z,101030.06
2023-01-04T23:12:48.128Z,101028.13
2023-01-04T23:14:51.015Z,101029.06
2023-01-04T23:16:55.193Z,101026.50
2023-01-04T23:18:58.099Z,101031.63
2023-01-04T23:21:01.027Z,101019.25
2023-01-04T23:23:03.798Z,100995.16
2023-01-04T23:25:07.667Z,100999.44
2023-01-04T23:27:10.496Z,101003.88
2023-01-04T23:29:13.781Z,100983.78
2023-01-04T23:31:18.869Z,100995.94
2023-01-04T23:33:23.118Z,100981.47
2023-01-04T23:35:25.887Z,101000.41
2023-01-04T23:37:28.685Z,100998.63
2023-01-04T23:39:31.510Z,101007.44
2023-01-04T23:41:47.325Z,100994.47
2023-01-04T23:43:50.535Z,100995.25
2023-01-04T23:45:53.400Z,100984.19
2023-01-04T23:47:56.303Z,100971.19
2023-01-04T23:50:00.435Z,100979.03
2023-01-04T23:52:04.672Z,100990.22
2023-01-04T23:54:08.355Z,100980.72
2023-01-04T23:56:15.788Z,100978.19
2023-01-04T23:58:18.645Z,100979.09
